Airfield :
LOGIN :

Register | Disclaimer

   EN    FR    IT 

 










Legend :    VFR   Marginal VFR   IFR   Intensive IFR   Very Intensive IFR
Visi :
Ceiling :
>= 8 km
>= 3000ft
5 to 8 km
1000 to 3000 ft
1500m to 5 km
500 to 1000 ft
800 to 1500m
200 to 500 ft
< 800m
< 200 ft
Symbols :   Thunderstorms  Fog  Heavy snow  Heavy precipitations  Wind > 20 kt
SIGMETs :     Misc.  Thunderstorms  Icing  Turbulence  Mountain Waves  Volcanic Ashes






- Airport Elevation : 92 ft


EGXZ - RAP Topcliffe

CURRENT METAR :
  • 271720Z AUTO 15010KT 9999 BR FEW230/// 08/07 Q1007

EXPIRED METARs :
  • 271650Z AUTO 13008KT 9999 FEW230/// 07/06 Q1007
  • 271620Z AUTO 15009KT 9999 FEW220/// 08/07 Q1008
  • 271550Z AUTO 14006KT 9999 BR NCD 07/06 Q1008
  • 271520Z AUTO 13006KT 9999 NCD 08/07 Q1008
  • 271450Z AUTO 11005KT 9999 NCD 09/07 Q1008

Expired Forecast.



MET'MAP, your aeronautical weather chart ! - Copyright ORBIFLY December 2007 - Disclaimer

ORBIFLY MET'MAP TEAM :

Programming & Development : Alexandra Zaïnal
Original concept : Baudouin d'Aumeries
Technical & hardware support : Manuel Goepfert
Assistance : Marc-Olivier Méhu




SOURCES & CREDITS :

   NOAA